sensor_id;sensor_type;location;lat;lon;timestamp;temperature;humidity
19947;DHT22;10135;50.702;7.276;2022-07-12T00:01:06;19.40;59.80
19947;DHT22;10135;50.702;7.276;2022-07-12T00:03:06;19.40;59.90
19947;DHT22;10135;50.702;7.276;2022-07-12T00:05:07;19.40;60.00
19947;DHT22;10135;50.702;7.276;2022-07-12T00:07:08;19.30;60.00
19947;DHT22;10135;50.702;7.276;2022-07-12T00:09:09;19.30;60.10
19947;DHT22;10135;50.702;7.276;2022-07-12T00:11:09;19.30;60.10
19947;DHT22;10135;50.702;7.276;2022-07-12T00:13:10;19.30;60.30
19947;DHT22;10135;50.702;7.276;2022-07-12T00:15:11;19.30;60.30
19947;DHT22;10135;50.702;7.276;2022-07-12T00:17:11;19.20;60.10
19947;DHT22;10135;50.702;7.276;2022-07-12T00:19:12;19.20;60.20
19947;DHT22;10135;50.702;7.276;2022-07-12T00:21:13;19.20;60.30
19947;DHT22;10135;50.702;7.276;2022-07-12T00:23:13;19.20;61.10
19947;DHT22;10135;50.702;7.276;2022-07-12T00:25:14;19.20;60.40
19947;DHT22;10135;50.702;7.276;2022-07-12T00:27:15;19.20;60.40
19947;DHT22;10135;50.702;7.276;2022-07-12T00:29:15;19.10;60.40
19947;DHT22;10135;50.702;7.276;2022-07-12T00:31:16;19.10;60.40
19947;DHT22;10135;50.702;7.276;2022-07-12T00:33:17;19.10;60.40
19947;DHT22;10135;50.702;7.276;2022-07-12T00:35:18;19.10;60.40
19947;DHT22;10135;50.702;7.276;2022-07-12T00:37:19;19.10;60.40
19947;DHT22;10135;50.702;7.276;2022-07-12T00:39:20;19.10;60.40
19947;DHT22;10135;50.702;7.276;2022-07-12T00:41:21;19.00;60.40
19947;DHT22;10135;50.702;7.276;2022-07-12T00:43:21;19.00;60.50
19947;DHT22;10135;50.702;7.276;2022-07-12T00:45:22;19.00;60.60
19947;DHT22;10135;50.702;7.276;2022-07-12T00:47:43;19.00;60.60
19947;DHT22;10135;50.702;7.276;2022-07-12T00:49:45;19.00;61.10
19947;DHT22;10135;50.702;7.276;2022-07-12T00:51:46;19.00;60.70
19947;DHT22;10135;50.702;7.276;2022-07-12T00:53:46;18.90;60.70
19947;DHT22;10135;50.702;7.276;2022-07-12T00:55:47;18.90;60.70
19947;DHT22;10135;50.702;7.276;2022-07-12T00:57:48;18.90;60.80
19947;DHT22;10135;50.702;7.276;2022-07-12T00:59:49;18.90;60.80
19947;DHT22;10135;50.702;7.276;2022-07-12T01:01:50;18.90;60.90
19947;DHT22;10135;50.702;7.276;2022-07-12T01:03:52;18.90;60.90
19947;DHT22;10135;50.702;7.276;2022-07-12T01:05:53;18.90;60.90
19947;DHT22;10135;50.702;7.276;2022-07-12T01:07:55;18.90;61.80
19947;DHT22;10135;50.702;7.276;2022-07-12T01:09:58;18.90;61.00
19947;DHT22;10135;50.702;7.276;2022-07-12T01:11:59;18.80;61.00
19947;DHT22;10135;50.702;7.276;2022-07-12T01:14:00;18.80;61.00
19947;DHT22;10135;50.702;7.276;2022-07-12T01:16:01;18.80;61.00
19947;DHT22;10135;50.702;7.276;2022-07-12T01:18:02;18.80;61.00
19947;DHT22;10135;50.702;7.276;2022-07-12T01:20:05;18.80;61.00
19947;DHT22;10135;50.702;7.276;2022-07-12T01:22:10;18.80;61.00
19947;DHT22;10135;50.702;7.276;2022-07-12T01:24:11;18.80;61.80
19947;DHT22;10135;50.702;7.276;2022-07-12T01:26:13;18.70;60.90
19947;DHT22;10135;50.702;7.276;2022-07-12T01:28:14;18.70;61.00
19947;DHT22;10135;50.702;7.276;2022-07-12T01:30:15;18.70;61.00
19947;DHT22;10135;50.702;7.276;2022-07-12T01:32:16;18.70;61.00
19947;DHT22;10135;50.702;7.276;2022-07-12T01:34:26;18.70;61.00
19947;DHT22;10135;50.702;7.276;2022-07-12T01:36:26;18.70;61.00
19947;DHT22;10135;50.702;7.276;2022-07-12T01:38:28;18.60;61.10
19947;DHT22;10135;50.702;7.276;2022-07-12T01:40:30;18.60;61.10
19947;DHT22;10135;50.702;7.276;2022-07-12T01:42:31;18.60;61.20
19947;DHT22;10135;50.702;7.276;2022-07-12T01:44:32;18.60;61.20
19947;DHT22;10135;50.702;7.276;2022-07-12T01:46:33;18.60;61.20
19947;DHT22;10135;50.702;7.276;2022-07-12T01:48:34;18.60;61.20
19947;DHT22;10135;50.702;7.276;2022-07-12T01:50:35;18.60;61.30
19947;DHT22;10135;50.702;7.276;2022-07-12T01:52:38;18.60;61.30
19947;DHT22;10135;50.702;7.276;2022-07-12T01:54:40;18.50;61.30
19947;DHT22;10135;50.702;7.276;2022-07-12T01:56:41;18.50;61.40
19947;DHT22;10135;50.702;7.276;2022-07-12T01:58:42;18.50;61.50
19947;DHT22;10135;50.702;7.276;2022-07-12T02:00:43;18.50;61.50
19947;DHT22;10135;50.702;7.276;2022-07-12T02:02:51;18.50;61.50
19947;DHT22;10135;50.702;7.276;2022-07-12T02:04:53;18.50;61.60
19947;DHT22;10135;50.702;7.276;2022-07-12T02:06:54;18.50;61.70
19947;DHT22;10135;50.702;7.276;2022-07-12T02:08:56;18.50;61.60
19947;DHT22;10135;50.702;7.276;2022-07-12T02:10:56;18.50;61.60
19947;DHT22;10135;50.702;7.276;2022-07-12T02:12:57;18.50;61.60
19947;DHT22;10135;50.702;7.276;2022-07-12T02:14:59;18.50;61.70
19947;DHT22;10135;50.702;7.276;2022-07-12T02:17:00;18.50;61.70
19947;DHT22;10135;50.702;7.276;2022-07-12T02:19:01;18.50;61.70
19947;DHT22;10135;50.702;7.276;2022-07-12T02:21:02;18.50;61.70
19947;DHT22;10135;50.702;7.276;2022-07-12T02:23:03;18.50;61.60
19947;DHT22;10135;50.702;7.276;2022-07-12T02:25:04;18.40;61.60
19947;DHT22;10135;50.702;7.276;2022-07-12T02:27:05;18.40;61.60
19947;DHT22;10135;50.702;7.276;2022-07-12T02:29:06;18.40;61.60
19947;DHT22;10135;50.702;7.276;2022-07-12T02:31:07;18.40;61.70
19947;DHT22;10135;50.702;7.276;2022-07-12T02:33:08;18.40;61.70
19947;DHT22;10135;50.702;7.276;2022-07-12T02:35:09;18.30;61.60
19947;DHT22;10135;50.702;7.276;2022-07-12T02:37:10;18.30;61.70
19947;DHT22;10135;50.702;7.276;2022-07-12T02:39:10;18.30;61.80
19947;DHT22;10135;50.702;7.276;2022-07-12T02:41:11;18.30;61.80
19947;DHT22;10135;50.702;7.276;2022-07-12T02:43:12;18.30;61.80
19947;DHT22;10135;50.702;7.276;2022-07-12T02:45:12;18.30;61.80
19947;DHT22;10135;50.702;7.276;2022-07-12T02:47:13;18.30;61.80
19947;DHT22;10135;50.702;7.276;2022-07-12T02:49:14;18.30;61.80
19947;DHT22;10135;50.702;7.276;2022-07-12T02:51:14;18.30;61.90
19947;DHT22;10135;50.702;7.276;2022-07-12T02:53:15;18.30;61.90
19947;DHT22;10135;50.702;7.276;2022-07-12T02:55:16;18.20;61.90
19947;DHT22;10135;50.702;7.276;2022-07-12T02:57:17;18.20;61.90
19947;DHT22;10135;50.702;7.276;2022-07-12T02:59:17;18.20;62.00
19947;DHT22;10135;50.702;7.276;2022-07-12T03:01:18;18.20;62.00
19947;DHT22;10135;50.702;7.276;2022-07-12T03:03:19;18.20;62.00
19947;DHT22;10135;50.702;7.276;2022-07-12T03:05:19;18.20;62.10
19947;DHT22;10135;50.702;7.276;2022-07-12T03:07:20;18.20;62.20
19947;DHT22;10135;50.702;7.276;2022-07-12T03:09:21;18.20;62.10
19947;DHT22;10135;50.702;7.276;2022-07-12T03:11:21;18.10;62.00
19947;DHT22;10135;50.702;7.276;2022-07-12T03:13:22;18.20;62.10
19947;DHT22;10135;50.702;7.276;2022-07-12T03:15:23;18.10;62.00
19947;DHT22;10135;50.702;7.276;2022-07-12T03:17:24;18.20;62.10
19947;DHT22;10135;50.702;7.276;2022-07-12T03:19:24;18.20;62.00
19947;DHT22;10135;50.702;7.276;2022-07-12T03:21:25;18.10;62.00
19947;DHT22;10135;50.702;7.276;2022-07-12T03:23:26;18.10;62.00
19947;DHT22;10135;50.702;7.276;2022-07-12T03:25:26;18.10;62.00
19947;DHT22;10135;50.702;7.276;2022-07-12T03:27:27;18.10;62.00
19947;DHT22;10135;50.702;7.276;2022-07-12T03:29:27;18.10;62.10
19947;DHT22;10135;50.702;7.276;2022-07-12T03:31:28;18.00;62.00
19947;DHT22;10135;50.702;7.276;2022-07-12T03:33:29;18.00;62.10
19947;DHT22;10135;50.702;7.276;2022-07-12T03:35:30;18.00;62.10
19947;DHT22;10135;50.702;7.276;2022-07-12T03:37:50;18.00;62.90
19947;DHT22;10135;50.702;7.276;2022-07-12T03:39:51;18.00;62.40
19947;DHT22;10135;50.702;7.276;2022-07-12T03:41:53;18.00;62.10
19947;DHT22;10135;50.702;7.276;2022-07-12T03:43:54;18.00;62.10
19947;DHT22;10135;50.702;7.276;2022-07-12T03:45:54;17.90;62.10
19947;DHT22;10135;50.702;7.276;2022-07-12T03:47:55;17.90;62.10
19947;DHT22;10135;50.702;7.276;2022-07-12T03:49:56;17.90;62.10
19947;DHT22;10135;50.702;7.276;2022-07-12T03:51:57;17.90;62.30
19947;DHT22;10135;50.702;7.276;2022-07-12T03:53:58;17.90;62.30
19947;DHT22;10135;50.702;7.276;2022-07-12T03:55:59;17.90;62.30
19947;DHT22;10135;50.702;7.276;2022-07-12T03:57:59;17.80;62.30
19947;DHT22;10135;50.702;7.276;2022-07-12T04:00:00;17.80;62.40
19947;DHT22;10135;50.702;7.276;2022-07-12T04:02:01;17.90;62.50
19947;DHT22;10135;50.702;7.276;2022-07-12T04:04:02;17.80;62.40
19947;DHT22;10135;50.702;7.276;2022-07-12T04:06:03;17.90;62.40
19947;DHT22;10135;50.702;7.276;2022-07-12T04:08:04;17.80;62.40
19947;DHT22;10135;50.702;7.276;2022-07-12T04:10:05;17.80;62.40
19947;DHT22;10135;50.702;7.276;2022-07-12T04:12:07;17.80;62.30
19947;DHT22;10135;50.702;7.276;2022-07-12T04:14:08;17.80;62.40
19947;DHT22;10135;50.702;7.276;2022-07-12T04:16:08;17.80;62.50
19947;DHT22;10135;50.702;7.276;2022-07-12T04:18:09;17.80;62.50
19947;DHT22;10135;50.702;7.276;2022-07-12T04:20:10;17.80;62.60
19947;DHT22;10135;50.702;7.276;2022-07-12T04:22:11;17.80;62.70
19947;DHT22;10135;50.702;7.276;2022-07-12T04:24:12;17.90;62.70
19947;DHT22;10135;50.702;7.276;2022-07-12T04:26:12;17.90;62.80
19947;DHT22;10135;50.702;7.276;2022-07-12T04:28:13;17.90;62.70
19947;DHT22;10135;50.702;7.276;2022-07-12T04:30:14;18.00;62.80
19947;DHT22;10135;50.702;7.276;2022-07-12T04:32:14;18.00;62.80
19947;DHT22;10135;50.702;7.276;2022-07-12T04:34:16;18.00;62.80
19947;DHT22;10135;50.702;7.276;2022-07-12T04:36:17;18.10;62.90
19947;DHT22;10135;50.702;7.276;2022-07-12T04:38:18;18.10;62.80
19947;DHT22;10135;50.702;7.276;2022-07-12T04:40:19;18.10;62.90
19947;DHT22;10135;50.702;7.276;2022-07-12T04:42:19;18.10;62.90
19947;DHT22;10135;50.702;7.276;2022-07-12T04:44:20;18.20;63.00
19947;DHT22;10135;50.702;7.276;2022-07-12T04:46:21;18.20;63.10
19947;DHT22;10135;50.702;7.276;2022-07-12T04:48:22;18.30;63.10
19947;DHT22;10135;50.702;7.276;2022-07-12T04:50:22;18.30;63.10
19947;DHT22;10135;50.702;7.276;2022-07-12T04:52:23;18.40;63.10
19947;DHT22;10135;50.702;7.276;2022-07-12T04:54:24;18.40;63.10
19947;DHT22;10135;50.702;7.276;2022-07-12T04:56:25;18.40;63.00
19947;DHT22;10135;50.702;7.276;2022-07-12T04:58:26;18.50;63.00
19947;DHT22;10135;50.702;7.276;2022-07-12T05:00:26;18.50;63.00
19947;DHT22;10135;50.702;7.276;2022-07-12T05:02:27;18.50;63.00
19947;DHT22;10135;50.702;7.276;2022-07-12T05:04:31;18.60;63.10
19947;DHT22;10135;50.702;7.276;2022-07-12T05:06:33;18.60;63.30
19947;DHT22;10135;50.702;7.276;2022-07-12T05:08:34;18.70;63.20
19947;DHT22;10135;50.702;7.276;2022-07-12T05:10:34;18.70;63.20
19947;DHT22;10135;50.702;7.276;2022-07-12T05:12:36;18.70;63.20
19947;DHT22;10135;50.702;7.276;2022-07-12T05:14:37;18.80;63.30
19947;DHT22;10135;50.702;7.276;2022-07-12T05:16:37;18.80;63.40
19947;DHT22;10135;50.702;7.276;2022-07-12T05:18:38;18.90;63.40
19947;DHT22;10135;50.702;7.276;2022-07-12T05:20:39;18.90;63.40
19947;DHT22;10135;50.702;7.276;2022-07-12T05:22:39;19.00;63.50
19947;DHT22;10135;50.702;7.276;2022-07-12T05:24:41;19.00;63.50
19947;DHT22;10135;50.702;7.276;2022-07-12T05:26:42;19.10;63.50
19947;DHT22;10135;50.702;7.276;2022-07-12T05:28:42;19.10;63.50
19947;DHT22;10135;50.702;7.276;2022-07-12T05:30:44;19.20;63.60
19947;DHT22;10135;50.702;7.276;2022-07-12T05:32:45;19.30;63.70
19947;DHT22;10135;50.702;7.276;2022-07-12T05:34:45;19.30;63.70
19947;DHT22;10135;50.702;7.276;2022-07-12T05:36:46;19.40;63.80
19947;DHT22;10135;50.702;7.276;2022-07-12T05:38:46;19.40;63.70
19947;DHT22;10135;50.702;7.276;2022-07-12T05:40:47;19.50;63.80
19947;DHT22;10135;50.702;7.276;2022-07-12T05:42:48;19.50;63.70
19947;DHT22;10135;50.702;7.276;2022-07-12T05:44:48;19.60;63.80
19947;DHT22;10135;50.702;7.276;2022-07-12T05:46:49;19.60;63.90
19947;DHT22;10135;50.702;7.276;2022-07-12T05:48:50;19.70;63.90
19947;DHT22;10135;50.702;7.276;2022-07-12T05:50:50;19.70;63.80
19947;DHT22;10135;50.702;7.276;2022-07-12T05:52:51;19.80;63.90
19947;DHT22;10135;50.702;7.276;2022-07-12T05:55:10;19.90;63.90
19947;DHT22;10135;50.702;7.276;2022-07-12T05:57:11;19.90;63.90
19947;DHT22;10135;50.702;7.276;2022-07-12T05:59:11;20.00;63.90
19947;DHT22;10135;50.702;7.276;2022-07-12T06:01:12;20.10;63.90
19947;DHT22;10135;50.702;7.276;2022-07-12T06:03:14;20.10;63.90
19947;DHT22;10135;50.702;7.276;2022-07-12T06:05:15;20.10;63.90
19947;DHT22;10135;50.702;7.276;2022-07-12T06:07:16;20.20;63.90
19947;DHT22;10135;50.702;7.276;2022-07-12T06:09:16;20.30;64.00
19947;DHT22;10135;50.702;7.276;2022-07-12T06:11:17;20.30;63.90
19947;DHT22;10135;50.702;7.276;2022-07-12T06:13:18;20.40;64.00
19947;DHT22;10135;50.702;7.276;2022-07-12T06:15:18;20.50;64.00
19947;DHT22;10135;50.702;7.276;2022-07-12T06:17:19;20.50;64.00
19947;DHT22;10135;50.702;7.276;2022-07-12T06:19:22;20.60;64.00
19947;DHT22;10135;50.702;7.276;2022-07-12T06:21:23;20.70;64.10
19947;DHT22;10135;50.702;7.276;2022-07-12T06:23:24;20.70;64.20
19947;DHT22;10135;50.702;7.276;2022-07-12T06:25:25;20.80;64.00
19947;DHT22;10135;50.702;7.276;2022-07-12T06:27:25;20.80;64.10
19947;DHT22;10135;50.702;7.276;2022-07-12T06:29:27;20.90;64.00
19947;DHT22;10135;50.702;7.276;2022-07-12T06:31:27;21.00;63.90
19947;DHT22;10135;50.702;7.276;2022-07-12T06:33:28;21.00;63.80
19947;DHT22;10135;50.702;7.276;2022-07-12T06:35:29;21.10;63.70
19947;DHT22;10135;50.702;7.276;2022-07-12T06:37:30;21.20;63.70
19947;DHT22;10135;50.702;7.276;2022-07-12T06:39:30;21.20;63.70
19947;DHT22;10135;50.702;7.276;2022-07-12T06:41:31;21.30;63.70
19947;DHT22;10135;50.702;7.276;2022-07-12T06:43:32;21.40;63.80
19947;DHT22;10135;50.702;7.276;2022-07-12T06:45:32;21.50;63.80
19947;DHT22;10135;50.702;7.276;2022-07-12T06:47:33;21.60;63.60
19947;DHT22;10135;50.702;7.276;2022-07-12T06:49:33;21.70;63.60
19947;DHT22;10135;50.702;7.276;2022-07-12T06:51:34;21.80;63.50
19947;DHT22;10135;50.702;7.276;2022-07-12T06:53:35;21.90;63.30
19947;DHT22;10135;50.702;7.276;2022-07-12T06:55:36;21.90;63.00
19947;DHT22;10135;50.702;7.276;2022-07-12T06:57:36;22.00;62.90
19947;DHT22;10135;50.702;7.276;2022-07-12T06:59:37;22.10;62.90
19947;DHT22;10135;50.702;7.276;2022-07-12T07:01:38;22.10;62.80
19947;DHT22;10135;50.702;7.276;2022-07-12T07:03:39;22.20;62.70
19947;DHT22;10135;50.702;7.276;2022-07-12T07:05:39;22.20;62.60
19947;DHT22;10135;50.702;7.276;2022-07-12T07:07:40;22.30;62.50
19947;DHT22;10135;50.702;7.276;2022-07-12T07:09:40;22.30;62.60
19947;DHT22;10135;50.702;7.276;2022-07-12T07:11:42;22.30;62.60
19947;DHT22;10135;50.702;7.276;2022-07-12T07:13:42;22.30;62.50
19947;DHT22;10135;50.702;7.276;2022-07-12T07:15:43;22.30;62.30
19947;DHT22;10135;50.702;7.276;2022-07-12T07:17:44;22.30;62.30
19947;DHT22;10135;50.702;7.276;2022-07-12T07:19:45;22.30;62.30
19947;DHT22;10135;50.702;7.276;2022-07-12T07:21:46;22.30;62.30
19947;DHT22;10135;50.702;7.276;2022-07-12T07:23:47;22.30;62.30
19947;DHT22;10135;50.702;7.276;2022-07-12T07:25:48;22.40;62.30
19947;DHT22;10135;50.702;7.276;2022-07-12T07:27:48;22.40;62.40
19947;DHT22;10135;50.702;7.276;2022-07-12T07:29:49;22.40;62.40
19947;DHT22;10135;50.702;7.276;2022-07-12T07:32:08;22.40;62.30
19947;DHT22;10135;50.702;7.276;2022-07-12T07:34:09;22.40;62.10
19947;DHT22;10135;50.702;7.276;2022-07-12T07:36:10;22.40;61.90
19947;DHT22;10135;50.702;7.276;2022-07-12T07:38:11;22.50;61.90
19947;DHT22;10135;50.702;7.276;2022-07-12T07:40:12;22.50;61.90
19947;DHT22;10135;50.702;7.276;2022-07-12T07:42:12;22.50;61.90
19947;DHT22;10135;50.702;7.276;2022-07-12T07:44:13;22.60;61.90
19947;DHT22;10135;50.702;7.276;2022-07-12T07:46:14;22.50;61.70
19947;DHT22;10135;50.702;7.276;2022-07-12T07:48:14;22.60;61.70
19947;DHT22;10135;50.702;7.276;2022-07-12T07:50:15;22.60;61.60
19947;DHT22;10135;50.702;7.276;2022-07-12T07:52:16;22.60;61.50
19947;DHT22;10135;50.702;7.276;2022-07-12T07:54:17;22.60;61.50
19947;DHT22;10135;50.702;7.276;2022-07-12T07:56:17;22.60;61.50
19947;DHT22;10135;50.702;7.276;2022-07-12T07:58:18;22.70;61.50
19947;DHT22;10135;50.702;7.276;2022-07-12T08:00:21;22.70;61.50
19947;DHT22;10135;50.702;7.276;2022-07-12T08:02:21;22.70;61.50
19947;DHT22;10135;50.702;7.276;2022-07-12T08:04:22;22.70;61.40
19947;DHT22;10135;50.702;7.276;2022-07-12T08:06:22;22.80;61.70
19947;DHT22;10135;50.702;7.276;2022-07-12T08:08:24;22.90;61.80
19947;DHT22;10135;50.702;7.276;2022-07-12T08:10:26;23.00;61.80
19947;DHT22;10135;50.702;7.276;2022-07-12T08:12:27;23.00;61.50
19947;DHT22;10135;50.702;7.276;2022-07-12T08:14:27;23.10;61.30
19947;DHT22;10135;50.702;7.276;2022-07-12T08:16:28;23.20;61.20
19947;DHT22;10135;50.702;7.276;2022-07-12T08:18:28;23.20;61.20
19947;DHT22;10135;50.702;7.276;2022-07-12T08:20:29;23.20;61.10
19947;DHT22;10135;50.702;7.276;2022-07-12T08:22:30;23.30;61.10
19947;DHT22;10135;50.702;7.276;2022-07-12T08:24:30;23.40;61.00
19947;DHT22;10135;50.702;7.276;2022-07-12T08:26:31;23.40;61.00
19947;DHT22;10135;50.702;7.276;2022-07-12T08:28:32;23.40;60.80
19947;DHT22;10135;50.702;7.276;2022-07-12T08:30:33;23.40;60.60
19947;DHT22;10135;50.702;7.276;2022-07-12T08:32:34;23.50;60.50
19947;DHT22;10135;50.702;7.276;2022-07-12T08:34:35;23.40;60.30
19947;DHT22;10135;50.702;7.276;2022-07-12T08:36:36;23.50;60.30
19947;DHT22;10135;50.702;7.276;2022-07-12T08:38:36;23.50;60.20
19947;DHT22;10135;50.702;7.276;2022-07-12T08:40:38;23.50;60.00
19947;DHT22;10135;50.702;7.276;2022-07-12T08:42:41;23.50;60.00
19947;DHT22;10135;50.702;7.276;2022-07-12T08:44:43;23.60;59.80
19947;DHT22;10135;50.702;7.276;2022-07-12T08:46:44;23.60;59.90
19947;DHT22;10135;50.702;7.276;2022-07-12T08:48:47;23.60;59.90
19947;DHT22;10135;50.702;7.276;2022-07-12T08:51:00;23.60;59.80
19947;DHT22;10135;50.702;7.276;2022-07-12T08:53:10;23.60;59.20
19947;DHT22;10135;50.702;7.276;2022-07-12T08:57:29;23.70;59.40
19947;DHT22;10135;50.702;7.276;2022-07-12T08:59:30;23.70;59.30
19947;DHT22;10135;50.702;7.276;2022-07-12T09:01:52;23.70;59.40
19947;DHT22;10135;50.702;7.276;2022-07-12T09:04:11;23.70;58.90
19947;DHT22;10135;50.702;7.276;2022-07-12T09:06:15;23.80;58.90
19947;DHT22;10135;50.702;7.276;2022-07-12T09:08:16;23.80;59.30
19947;DHT22;10135;50.702;7.276;2022-07-12T09:10:17;23.80;59.20
19947;DHT22;10135;50.702;7.276;2022-07-12T09:12:24;23.80;59.10
19947;DHT22;10135;50.702;7.276;2022-07-12T09:14:25;23.90;58.90
19947;DHT22;10135;50.702;7.276;2022-07-12T09:16:27;23.90;59.10
19947;DHT22;10135;50.702;7.276;2022-07-12T09:18:27;23.90;59.00
19947;DHT22;10135;50.702;7.276;2022-07-12T09:20:34;23.90;58.90
19947;DHT22;10135;50.702;7.276;2022-07-12T09:22:36;23.90;58.80
19947;DHT22;10135;50.702;7.276;2022-07-12T09:24:37;24.00;58.80
19947;DHT22;10135;50.702;7.276;2022-07-12T09:26:38;24.00;58.70
19947;DHT22;10135;50.702;7.276;2022-07-12T09:28:38;24.00;58.80
19947;DHT22;10135;50.702;7.276;2022-07-12T09:30:51;24.00;58.80
19947;DHT22;10135;50.702;7.276;2022-07-12T09:32:57;24.10;58.30
19947;DHT22;10135;50.702;7.276;2022-07-12T09:35:18;24.10;58.70
19947;DHT22;10135;50.702;7.276;2022-07-12T09:37:39;24.10;58.60
19947;DHT22;10135;50.702;7.276;2022-07-12T09:39:40;24.10;58.40
19947;DHT22;10135;50.702;7.276;2022-07-12T09:41:42;24.20;58.50
19947;DHT22;10135;50.702;7.276;2022-07-12T09:43:44;24.20;58.40
19947;DHT22;10135;50.702;7.276;2022-07-12T09:45:49;24.20;58.20
19947;DHT22;10135;50.702;7.276;2022-07-12T09:47:51;24.30;58.00
19947;DHT22;10135;50.702;7.276;2022-07-12T09:49:53;24.30;58.00
19947;DHT22;10135;50.702;7.276;2022-07-12T09:51:55;24.40;58.10
19947;DHT22;10135;50.702;7.276;2022-07-12T09:53:57;24.40;58.10
19947;DHT22;10135;50.702;7.276;2022-07-12T09:56:07;24.40;58.00
19947;DHT22;10135;50.702;7.276;2022-07-12T09:58:12;24.50;57.60
19947;DHT22;10135;50.702;7.276;2022-07-12T10:00:14;24.50;57.80
19947;DHT22;10135;50.702;7.276;2022-07-12T10:02:15;24.60;57.80
19947;DHT22;10135;50.702;7.276;2022-07-12T10:04:20;24.60;57.70
19947;DHT22;10135;50.702;7.276;2022-07-12T10:06:27;24.70;57.20
19947;DHT22;10135;50.702;7.276;2022-07-12T10:08:30;24.70;57.20
19947;DHT22;10135;50.702;7.276;2022-07-12T10:10:31;24.80;57.40
19947;DHT22;10135;50.702;7.276;2022-07-12T10:12:34;24.80;57.30
19947;DHT22;10135;50.702;7.276;2022-07-12T10:14:36;24.90;57.30
19947;DHT22;10135;50.702;7.276;2022-07-12T10:16:41;24.90;57.20
19947;DHT22;10135;50.702;7.276;2022-07-12T10:18:43;24.90;56.90
19947;DHT22;10135;50.702;7.276;2022-07-12T10:20:48;25.00;57.00
19947;DHT22;10135;50.702;7.276;2022-07-12T10:27:27;25.20;56.10
19947;DHT22;10135;50.702;7.276;2022-07-12T10:29:29;25.20;56.60
19947;DHT22;10135;50.702;7.276;2022-07-12T10:31:36;25.30;56.50
19947;DHT22;10135;50.702;7.276;2022-07-12T10:33:38;25.30;55.90
19947;DHT22;10135;50.702;7.276;2022-07-12T10:35:39;25.40;56.30
19947;DHT22;10135;50.702;7.276;2022-07-12T10:40:19;25.40;55.40
19947;DHT22;10135;50.702;7.276;2022-07-12T10:42:20;25.50;55.50
19947;DHT22;10135;50.702;7.276;2022-07-12T10:44:34;25.50;56.60
19947;DHT22;10135;50.702;7.276;2022-07-12T10:46:58;25.60;55.30
19947;DHT22;10135;50.702;7.276;2022-07-12T10:49:25;25.60;55.30
19947;DHT22;10135;50.702;7.276;2022-07-12T10:51:27;25.70;55.30
19947;DHT22;10135;50.702;7.276;2022-07-12T10:53:33;25.70;55.80
19947;DHT22;10135;50.702;7.276;2022-07-12T10:55:35;25.80;55.60
19947;DHT22;10135;50.702;7.276;2022-07-12T10:57:47;25.80;55.50
19947;DHT22;10135;50.702;7.276;2022-07-12T10:59:52;25.90;54.60
19947;DHT22;10135;50.702;7.276;2022-07-12T11:01:55;25.90;55.10
19947;DHT22;10135;50.702;7.276;2022-07-12T11:06:12;26.00;54.60
19947;DHT22;10135;50.702;7.276;2022-07-12T11:08:15;26.00;54.60
19947;DHT22;10135;50.702;7.276;2022-07-12T11:10:15;26.00;55.00
19947;DHT22;10135;50.702;7.276;2022-07-12T11:12:17;26.10;54.70
19947;DHT22;10135;50.702;7.276;2022-07-12T11:14:30;26.20;54.60
19947;DHT22;10135;50.702;7.276;2022-07-12T11:16:32;26.20;53.90
19947;DHT22;10135;50.702;7.276;2022-07-12T11:18:35;26.30;54.60
19947;DHT22;10135;50.702;7.276;2022-07-12T11:20:37;26.30;54.10
19947;DHT22;10135;50.702;7.276;2022-07-12T11:22:39;26.40;54.30
19947;DHT22;10135;50.702;7.276;2022-07-12T11:24:41;26.40;54.00
19947;DHT22;10135;50.702;7.276;2022-07-12T11:26:42;26.50;54.00
19947;DHT22;10135;50.702;7.276;2022-07-12T11:28:44;26.50;53.90
19947;DHT22;10135;50.702;7.276;2022-07-12T11:30:49;26.50;53.80
19947;DHT22;10135;50.702;7.276;2022-07-12T11:32:51;26.50;53.30
19947;DHT22;10135;50.702;7.276;2022-07-12T11:34:53;26.60;53.80
19947;DHT22;10135;50.702;7.276;2022-07-12T11:36:56;26.60;53.50
19947;DHT22;10135;50.702;7.276;2022-07-12T11:38:57;26.60;53.50
19947;DHT22;10135;50.702;7.276;2022-07-12T11:40:59;26.70;53.60
19947;DHT22;10135;50.702;7.276;2022-07-12T11:43:01;26.70;53.50
19947;DHT22;10135;50.702;7.276;2022-07-12T11:45:04;26.80;53.30
19947;DHT22;10135;50.702;7.276;2022-07-12T11:47:04;26.80;53.30
19947;DHT22;10135;50.702;7.276;2022-07-12T11:49:05;26.90;53.20
19947;DHT22;10135;50.702;7.276;2022-07-12T11:51:07;27.00;53.10
19947;DHT22;10135;50.702;7.276;2022-07-12T11:53:20;27.00;52.90
19947;DHT22;10135;50.702;7.276;2022-07-12T11:55:22;27.10;52.20
19947;DHT22;10135;50.702;7.276;2022-07-12T11:57:23;27.20;52.80
19947;DHT22;10135;50.702;7.276;2022-07-12T11:59:24;27.20;53.30
19947;DHT22;10135;50.702;7.276;2022-07-12T12:01:24;27.30;52.60
19947;DHT22;10135;50.702;7.276;2022-07-12T12:03:26;27.30;52.40
19947;DHT22;10135;50.702;7.276;2022-07-12T12:05:28;27.40;52.20
19947;DHT22;10135;50.702;7.276;2022-07-12T12:07:28;27.40;52.00
19947;DHT22;10135;50.702;7.276;2022-07-12T12:09:29;27.50;52.00
19947;DHT22;10135;50.702;7.276;2022-07-12T12:11:30;27.50;51.80
19947;DHT22;10135;50.702;7.276;2022-07-12T12:13:30;27.50;51.60
19947;DHT22;10135;50.702;7.276;2022-07-12T12:15:33;27.60;51.50
19947;DHT22;10135;50.702;7.276;2022-07-12T12:17:35;27.60;51.20
19947;DHT22;10135;50.702;7.276;2022-07-12T12:19:41;27.60;51.10
19947;DHT22;10135;50.702;7.276;2022-07-12T12:21:43;27.60;50.30
19947;DHT22;10135;50.702;7.276;2022-07-12T12:23:43;27.60;50.90
19947;DHT22;10135;50.702;7.276;2022-07-12T12:25:44;27.70;50.80
19947;DHT22;10135;50.702;7.276;2022-07-12T12:28:02;27.70;50.70
19947;DHT22;10135;50.702;7.276;2022-07-12T12:30:07;27.70;49.70
19947;DHT22;10135;50.702;7.276;2022-07-12T12:32:19;27.80;50.50
19947;DHT22;10135;50.702;7.276;2022-07-12T12:34:20;27.80;49.40
19947;DHT22;10135;50.702;7.276;2022-07-12T12:36:23;27.90;50.30
19947;DHT22;10135;50.702;7.276;2022-07-12T12:38:28;27.90;50.10
19947;DHT22;10135;50.702;7.276;2022-07-12T12:40:32;27.90;49.60
19947;DHT22;10135;50.702;7.276;2022-07-12T12:42:35;28.00;49.60
19947;DHT22;10135;50.702;7.276;2022-07-12T12:44:36;28.00;49.90
19947;DHT22;10135;50.702;7.276;2022-07-12T12:46:56;28.00;50.40
19947;DHT22;10135;50.702;7.276;2022-07-12T12:49:17;28.10;48.80
19947;DHT22;10135;50.702;7.276;2022-07-12T12:51:17;28.10;49.50
19947;DHT22;10135;50.702;7.276;2022-07-12T12:53:25;28.20;49.50
19947;DHT22;10135;50.702;7.276;2022-07-12T12:55:25;28.20;48.50
19947;DHT22;10135;50.702;7.276;2022-07-12T12:57:26;28.30;49.30
19947;DHT22;10135;50.702;7.276;2022-07-12T12:59:27;28.40;49.10
19947;DHT22;10135;50.702;7.276;2022-07-12T13:01:27;28.40;49.10
19947;DHT22;10135;50.702;7.276;2022-07-12T13:03:28;28.50;48.80